Time;durP1;ratioP1;P1;durP2;ratioP2;P2;SDS_P1;SDS_P2;PMS_P1;PMS_P2;Temp;Humidity;BMP_temperature;BMP_pressure;BME280_temperature;BME280_humidity;BME280_pressure;Samples;Min_cycle;Max_cycle;Signal;HPM_P1;HPM_P2
2023/03/29 00:00:30;;;;;;;;;;;18.70;27.50;;;;;;1528082;77;694;-58
2023/03/29 00:02:32;;;;;;;;;;;18.70;27.40;;;;;;1523921;76;1150;-58
2023/03/29 00:04:34;;;;;;;;;;;18.60;27.10;;;;;;1522680;77;756;-58
2023/03/29 00:06:36;;;;;;;;;;;18.50;26.90;;;;;;1527130;77;710;-61
2023/03/29 00:08:38;;;;;;;;;;;18.50;27.20;;;;;;1493043;79;765;-60
2023/03/29 00:10:41;;;;;;;;;;;18.60;27.30;;;;;;1530134;77;1464;-61
2023/03/29 00:12:43;;;;;;;;;;;18.60;27.20;;;;;;1526716;77;1182;-59
2023/03/29 00:14:45;;;;;;;;;;;18.60;27.20;;;;;;1521379;76;771;-59
2023/03/29 00:16:47;;;;;;;;;;;18.60;27.10;;;;;;1547226;77;1931;-58
2023/03/29 00:18:49;;;;;;;;;;;18.50;26.90;;;;;;1538075;77;675;-59
2023/03/29 00:20:55;;;;;;;;;;;18.60;27.00;;;;;;1537157;77;741;-59
2023/03/29 00:22:57;;;;;;;;;;;18.50;27.30;;;;;;1545614;77;1526;-60
2023/03/29 00:24:59;;;;;;;;;;;18.50;27.30;;;;;;1544878;77;713;-61
2023/03/29 00:27:00;;;;;;;;;;;18.50;27.30;;;;;;1543015;77;741;-61
2023/03/29 00:29:02;;;;;;;;;;;18.60;27.30;;;;;;1525237;77;869;-59
2023/03/29 00:31:08;;;;;;;;;;;18.60;27.30;;;;;;1546498;77;807;-60
2023/03/29 00:33:10;;;;;;;;;;;18.70;27.40;;;;;;1534151;77;1167;-60
2023/03/29 00:35:12;;;;;;;;;;;18.60;27.30;;;;;;1534626;77;979;-59
2023/03/29 00:37:14;;;;;;;;;;;18.60;27.30;;;;;;1544010;77;1929;-58
2023/03/29 00:39:17;;;;;;;;;;;18.60;27.40;;;;;;1525976;77;703;-59
2023/03/29 00:41:20;;;;;;;;;;;18.60;27.40;;;;;;1529112;77;1064;-58
2023/03/29 00:43:21;;;;;;;;;;;18.70;27.60;;;;;;1541479;77;1110;-58
2023/03/29 00:45:29;;;;;;;;;;;18.60;27.50;;;;;;1539339;77;690;-59
2023/03/29 00:47:35;;;;;;;;;;;18.60;27.60;;;;;;1536675;77;1703;-60
2023/03/29 00:49:37;;;;;;;;;;;18.70;27.70;;;;;;1538606;77;750;-59
2023/03/29 00:51:39;;;;;;;;;;;18.60;27.60;;;;;;1539510;77;1447;-61
2023/03/29 00:53:47;;;;;;;;;;;18.60;27.60;;;;;;1536287;77;1149;-60
2023/03/29 00:56:00;;;;;;;;;;;18.60;27.50;;;;;;1535709;77;830;-60
2023/03/29 00:58:03;;;;;;;;;;;18.70;27.80;;;;;;1539736;77;1909;-60
2023/03/29 01:00:08;;;;;;;;;;;18.60;27.70;;;;;;1544267;77;656;-61
2023/03/29 01:02:09;;;;;;;;;;;18.60;27.80;;;;;;1537398;77;1706;-59
2023/03/29 01:04:18;;;;;;;;;;;18.60;27.80;;;;;;1538053;77;1067;-61
2023/03/29 01:06:18;;;;;;;;;;;18.60;27.90;;;;;;1541997;77;1391;-60
2023/03/29 01:08:24;;;;;;;;;;;18.60;27.90;;;;;;1545396;77;786;-59
2023/03/29 01:10:27;;;;;;;;;;;18.60;27.90;;;;;;1545008;77;696;-57
2023/03/29 01:12:31;;;;;;;;;;;18.60;27.90;;;;;;1529102;77;1295;-60
2023/03/29 01:14:37;;;;;;;;;;;18.60;28.00;;;;;;1547012;77;555;-59
2023/03/29 01:16:39;;;;;;;;;;;18.60;28.00;;;;;;1527674;77;1943;-58
2023/03/29 01:18:41;;;;;;;;;;;18.60;28.00;;;;;;1544370;77;783;-58
2023/03/29 01:20:47;;;;;;;;;;;18.60;28.10;;;;;;1542830;77;1520;-59
2023/03/29 01:22:54;;;;;;;;;;;18.60;28.10;;;;;;1531105;77;1877;-61
2023/03/29 01:25:00;;;;;;;;;;;18.60;28.10;;;;;;1536639;77;595;-59
2023/03/29 01:27:24;;;;;;;;;;;18.60;28.10;;;;;;1532598;77;1946;-59
2023/03/29 01:29:30;;;;;;;;;;;18.70;28.20;;;;;;1466610;81;1083;-59
2023/03/29 01:31:33;;;;;;;;;;;18.70;28.20;;;;;;1468798;79;2095;-59
2023/03/29 01:33:37;;;;;;;;;;;18.60;28.10;;;;;;1467203;79;1688;-58
2023/03/29 01:35:43;;;;;;;;;;;18.70;28.20;;;;;;1521393;77;1097;-59
2023/03/29 01:37:48;;;;;;;;;;;18.70;28.20;;;;;;1536764;77;1892;-59
2023/03/29 01:39:51;;;;;;;;;;;18.70;28.40;;;;;;1546742;77;788;-59
2023/03/29 01:41:57;;;;;;;;;;;18.60;28.20;;;;;;1545010;77;676;-58
2023/03/29 01:44:00;;;;;;;;;;;18.60;28.30;;;;;;1540883;77;2009;-59
2023/03/29 01:46:04;;;;;;;;;;;18.70;28.40;;;;;;1533642;77;673;-60
2023/03/29 01:48:10;;;;;;;;;;;18.60;28.30;;;;;;1535138;77;1606;-61
2023/03/29 01:50:14;;;;;;;;;;;18.60;28.30;;;;;;1541767;77;951;-60
2023/03/29 01:52:17;;;;;;;;;;;18.60;28.30;;;;;;1533969;77;760;-58
2023/03/29 01:54:27;;;;;;;;;;;18.70;28.40;;;;;;1531418;77;1567;-59
2023/03/29 01:56:29;;;;;;;;;;;18.60;28.50;;;;;;1529572;77;1924;-59
2023/03/29 01:58:32;;;;;;;;;;;18.70;28.60;;;;;;1529688;77;776;-60
2023/03/29 02:00:35;;;;;;;;;;;18.70;28.60;;;;;;1537060;77;748;-60
2023/03/29 02:02:38;;;;;;;;;;;18.70;28.60;;;;;;1540614;77;1321;-59
2023/03/29 02:04:44;;;;;;;;;;;18.60;28.50;;;;;;1535271;77;670;-58
2023/03/29 02:06:45;;;;;;;;;;;18.70;28.60;;;;;;1533053;77;1615;-58
2023/03/29 02:08:47;;;;;;;;;;;18.70;28.60;;;;;;1536721;77;771;-59
2023/03/29 02:10:50;;;;;;;;;;;18.70;28.60;;;;;;1525636;77;686;-60
2023/03/29 02:12:52;;;;;;;;;;;18.70;28.60;;;;;;1533928;77;1103;-61
2023/03/29 02:14:55;;;;;;;;;;;18.60;28.50;;;;;;1537899;77;674;-58
2023/03/29 02:16:58;;;;;;;;;;;18.70;28.60;;;;;;1527716;77;1913;-58
2023/03/29 02:19:00;;;;;;;;;;;18.70;28.60;;;;;;1538103;77;1642;-61
2023/03/29 02:21:02;;;;;;;;;;;18.70;28.70;;;;;;1538276;75;686;-58
2023/03/29 02:23:09;;;;;;;;;;;18.70;28.70;;;;;;1537021;77;1170;-58
2023/03/29 02:25:11;;;;;;;;;;;18.70;28.70;;;;;;1541006;77;816;-60
2023/03/29 02:27:13;;;;;;;;;;;18.70;28.70;;;;;;1545397;77;727;-62
2023/03/29 02:29:15;;;;;;;;;;;18.70;28.70;;;;;;1532615;77;993;-59
2023/03/29 02:31:24;;;;;;;;;;;18.70;28.70;;;;;;1528923;77;1616;-58
2023/03/29 02:33:30;;;;;;;;;;;18.70;28.70;;;;;;1543231;77;1158;-59
2023/03/29 02:35:35;;;;;;;;;;;18.70;28.70;;;;;;1541712;77;798;-59
2023/03/29 02:37:39;;;;;;;;;;;18.70;28.80;;;;;;1535680;77;1922;-60
2023/03/29 02:39:40;;;;;;;;;;;18.70;28.80;;;;;;1534677;77;1667;-58
2023/03/29 02:41:43;;;;;;;;;;;18.70;28.80;;;;;;1532842;77;806;-59
2023/03/29 02:43:45;;;;;;;;;;;18.70;28.90;;;;;;1526868;77;1383;-62
2023/03/29 02:45:47;;;;;;;;;;;18.70;28.80;;;;;;1539435;77;748;-59
2023/03/29 02:47:50;;;;;;;;;;;18.70;28.90;;;;;;1546356;77;671;-58
2023/03/29 02:49:52;;;;;;;;;;;18.70;28.90;;;;;;1539379;77;1027;-60
2023/03/29 02:51:55;;;;;;;;;;;18.70;29.00;;;;;;1531324;77;802;-60
2023/03/29 02:53:59;;;;;;;;;;;18.70;28.90;;;;;;1528992;77;1096;-60
2023/03/29 02:56:01;;;;;;;;;;;18.70;28.90;;;;;;1534465;77;1566;-62
2023/03/29 02:58:06;;;;;;;;;;;18.70;28.90;;;;;;1527560;77;1915;-60
2023/03/29 03:00:09;;;;;;;;;;;18.70;29.00;;;;;;1543457;77;1558;-59
2023/03/29 03:02:12;;;;;;;;;;;18.60;28.90;;;;;;1542657;77;697;-61
2023/03/29 03:04:14;;;;;;;;;;;18.70;29.00;;;;;;1540387;77;1138;-59
2023/03/29 03:06:17;;;;;;;;;;;18.70;29.00;;;;;;1546703;77;692;-57
2023/03/29 03:08:19;;;;;;;;;;;18.70;29.00;;;;;;1541395;77;739;-60
2023/03/29 03:10:21;;;;;;;;;;;18.70;29.00;;;;;;1537486;77;761;-59
2023/03/29 03:12:23;;;;;;;;;;;18.80;29.00;;;;;;1539146;77;1552;-61
2023/03/29 03:14:27;;;;;;;;;;;18.70;29.10;;;;;;1546967;77;768;-61
2023/03/29 03:16:29;;;;;;;;;;;18.70;29.10;;;;;;1531666;77;821;-59
2023/03/29 03:18:31;;;;;;;;;;;18.70;29.10;;;;;;1523015;77;1904;-59
2023/03/29 03:20:33;;;;;;;;;;;18.70;29.10;;;;;;1530049;77;798;-59
2023/03/29 03:22:35;;;;;;;;;;;18.70;29.10;;;;;;1542430;77;1197;-59
2023/03/29 03:24:37;;;;;;;;;;;18.70;29.10;;;;;;1539348;77;757;-60
2023/03/29 03:26:39;;;;;;;;;;;18.70;29.10;;;;;;1544100;77;1513;-59
2023/03/29 03:28:41;;;;;;;;;;;18.70;29.20;;;;;;1533508;77;716;-61
2023/03/29 03:30:42;;;;;;;;;;;18.70;29.20;;;;;;1546007;77;837;-59
2023/03/29 03:32:44;;;;;;;;;;;18.70;29.10;;;;;;1536102;77;1152;-58
2023/03/29 03:34:46;;;;;;;;;;;18.70;29.20;;;;;;1545514;77;651;-61
2023/03/29 03:36:49;;;;;;;;;;;18.80;29.20;;;;;;1526702;77;558;-59
2023/03/29 03:38:52;;;;;;;;;;;18.80;29.20;;;;;;1539396;77;1920;-61
2023/03/29 03:40:54;;;;;;;;;;;18.70;29.20;;;;;;1531722;77;1582;-59
2023/03/29 03:42:59;;;;;;;;;;;18.70;29.10;;;;;;1542139;77;1145;-59
2023/03/29 03:45:01;;;;;;;;;;;18.70;29.20;;;;;;1533988;77;620;-59
2023/03/29 03:47:04;;;;;;;;;;;18.70;29.20;;;;;;1547737;77;597;-60
2023/03/29 03:49:06;;;;;;;;;;;18.60;29.20;;;;;;1534891;77;716;-59
2023/03/29 03:51:08;;;;;;;;;;;18.70;29.30;;;;;;1542933;77;716;-60
2023/03/29 03:53:10;;;;;;;;;;;18.60;29.20;;;;;;1538200;77;1151;-58
2023/03/29 03:55:13;;;;;;;;;;;18.70;29.30;;;;;;1539074;77;1317;-62
2023/03/29 03:57:15;;;;;;;;;;;18.70;29.30;;;;;;1542255;77;1917;-58
2023/03/29 03:59:17;;;;;;;;;;;18.80;29.30;;;;;;1532007;77;731;-58
2023/03/29 04:01:19;;;;;;;;;;;18.70;29.20;;;;;;1523456;77;668;-58
2023/03/29 04:03:21;;;;;;;;;;;18.80;29.20;;;;;;1526599;77;1151;-58
2023/03/29 04:05:23;;;;;;;;;;;18.70;29.10;;;;;;1543633;77;663;-58
2023/03/29 04:07:26;;;;;;;;;;;18.70;29.10;;;;;;1537602;77;822;-58
2023/03/29 04:09:30;;;;;;;;;;;18.80;29.10;;;;;;1543646;77;1472;-58
2023/03/29 04:11:32;;;;;;;;;;;18.70;29.00;;;;;;1545545;77;1630;-58
2023/03/29 04:13:34;;;;;;;;;;;18.70;29.00;;;;;;1528446;77;1110;-57
2023/03/29 04:15:40;;;;;;;;;;;18.80;29.10;;;;;;1539325;77;674;-59
2023/03/29 04:17:41;;;;;;;;;;;18.80;29.00;;;;;;1538146;77;1914;-58
2023/03/29 04:19:43;;;;;;;;;;;18.80;29.10;;;;;;1532863;77;815;-59
2023/03/29 04:21:47;;;;;;;;;;;18.80;29.10;;;;;;1537223;77;776;-60
2023/03/29 04:23:49;;;;;;;;;;;18.70;29.10;;;;;;1547037;77;1654;-59
2023/03/29 04:25:52;;;;;;;;;;;18.70;29.20;;;;;;1536544;77;765;-59
2023/03/29 04:27:54;;;;;;;;;;;18.80;29.20;;;;;;1540655;77;711;-59
2023/03/29 04:29:56;;;;;;;;;;;18.70;29.20;;;;;;1534832;77;777;-58
2023/03/29 04:31:58;;;;;;;;;;;18.70;29.20;;;;;;1546682;77;743;-57
2023/03/29 04:34:00;;;;;;;;;;;18.70;29.30;;;;;;1531933;77;1171;-59
2023/03/29 04:36:02;;;;;;;;;;;18.80;29.20;;;;;;1545915;77;1388;-58
2023/03/29 04:38:08;;;;;;;;;;;18.70;29.30;;;;;;1540779;77;1932;-60
2023/03/29 04:40:08;;;;;;;;;;;18.70;29.30;;;;;;1535049;77;1535;-61
2023/03/29 04:42:11;;;;;;;;;;;18.60;29.40;;;;;;1542409;77;632;-60
2023/03/29 04:44:13;;;;;;;;;;;18.70;29.40;;;;;;1541643;77;1112;-60
2023/03/29 04:46:15;;;;;;;;;;;18.60;29.40;;;;;;1534264;77;720;-61
2023/03/29 04:48:17;;;;;;;;;;;18.60;29.40;;;;;;1535159;77;662;-59
2023/03/29 04:50:19;;;;;;;;;;;18.70;29.50;;;;;;1539711;77;1515;-59
2023/03/29 04:52:20;;;;;;;;;;;18.70;29.50;;;;;;1543825;77;728;-59
2023/03/29 04:54:22;;;;;;;;;;;18.70;29.50;;;;;;1545878;77;677;-58
2023/03/29 04:56:25;;;;;;;;;;;18.70;29.50;;;;;;1547013;77;695;-58
2023/03/29 04:58:27;;;;;;;;;;;18.70;29.50;;;;;;1529694;77;1905;-59
2023/03/29 05:00:30;;;;;;;;;;;18.70;29.50;;;;;;1531240;77;656;-59
2023/03/29 05:02:32;;;;;;;;;;;18.70;29.50;;;;;;1533860;77;1158;-61
2023/03/29 05:04:34;;;;;;;;;;;18.70;29.50;;;;;;1540098;77;1471;-59
2023/03/29 05:06:36;;;;;;;;;;;18.70;29.60;;;;;;1540532;77;744;-59
2023/03/29 05:08:38;;;;;;;;;;;18.60;29.40;;;;;;1540791;77;755;-59
2023/03/29 05:10:43;;;;;;;;;;;18.70;29.50;;;;;;1530622;77;698;-58
2023/03/29 05:12:45;;;;;;;;;;;18.70;29.60;;;;;;1534798;77;1143;-60
2023/03/29 05:14:47;;;;;;;;;;;18.70;29.70;;;;;;1529051;77;728;-61
2023/03/29 05:16:49;;;;;;;;;;;18.70;29.70;;;;;;1534663;77;648;-61
2023/03/29 05:18:51;;;;;;;;;;;18.60;29.50;;;;;;1535174;77;1921;-59
2023/03/29 05:20:53;;;;;;;;;;;18.70;29.60;;;;;;1533102;77;737;-59
2023/03/29 05:22:55;;;;;;;;;;;18.70;29.60;;;;;;1542613;77;1204;-59
2023/03/29 05:24:58;;;;;;;;;;;18.70;29.60;;;;;;1546900;77;725;-59
2023/03/29 05:27:00;;;;;;;;;;;18.70;29.60;;;;;;1532317;77;737;-61
2023/03/29 05:29:03;;;;;;;;;;;18.70;29.60;;;;;;1531698;77;644;-60
2023/03/29 05:31:05;;;;;;;;;;;18.70;29.70;;;;;;1537485;77;793;-58
2023/03/29 05:33:07;;;;;;;;;;;18.70;29.70;;;;;;1530477;77;1314;-59
2023/03/29 05:35:10;;;;;;;;;;;18.70;29.70;;;;;;1546676;77;833;-58
2023/03/29 05:37:12;;;;;;;;;;;18.70;29.70;;;;;;1546291;77;704;-59
2023/03/29 05:39:14;;;;;;;;;;;18.70;29.70;;;;;;1542762;77;1917;-60
2023/03/29 05:41:16;;;;;;;;;;;18.70;29.70;;;;;;1542070;77;786;-58
2023/03/29 05:43:18;;;;;;;;;;;18.70;29.70;;;;;;1532529;77;1161;-59
2023/03/29 05:45:21;;;;;;;;;;;18.70;29.70;;;;;;1533287;77;678;-59
2023/03/29 05:47:23;;;;;;;;;;;18.70;29.70;;;;;;1527894;77;1519;-60
2023/03/29 05:49:25;;;;;;;;;;;18.70;29.80;;;;;;1544539;77;788;-59
2023/03/29 05:51:27;;;;;;;;;;;18.70;29.80;;;;;;1540483;77;745;-60
2023/03/29 05:53:29;;;;;;;;;;;18.70;29.90;;;;;;1544684;77;1154;-59
2023/03/29 05:55:31;;;;;;;;;;;18.70;29.80;;;;;;1533496;77;796;-60
2023/03/29 05:57:36;;;;;;;;;;;18.70;30.00;;;;;;1534723;77;600;-58
2023/03/29 05:59:38;;;;;;;;;;;18.70;30.00;;;;;;1527460;77;1932;-60
2023/03/29 06:01:40;;;;;;;;;;;18.70;30.00;;;;;;1530585;77;1456;-59
2023/03/29 06:03:42;;;;;;;;;;;18.60;29.90;;;;;;1539151;77;1164;-60
2023/03/29 06:05:45;;;;;;;;;;;18.60;29.90;;;;;;1535635;77;691;-60
2023/03/29 06:07:50;;;;;;;;;;;18.70;30.10;;;;;;1546891;77;591;-59
2023/03/29 06:09:53;;;;;;;;;;;18.60;30.00;;;;;;1540042;77;910;-58
2023/03/29 06:11:56;;;;;;;;;;;18.60;30.00;;;;;;1532710;77;690;-60
2023/03/29 06:13:58;;;;;;;;;;;18.60;29.40;;;;;;1523445;77;1132;-58
2023/03/29 06:16:00;;;;;;;;;;;18.60;30.00;;;;;;1529463;77;1227;-60
2023/03/29 06:18:02;;;;;;;;;;;18.70;30.10;;;;;;1540768;77;1925;-60
2023/03/29 06:20:09;;;;;;;;;;;18.60;30.00;;;;;;1547364;77;773;-60
2023/03/29 06:22:08;;;;;;;;;;;18.60;30.00;;;;;;1537637;77;1638;-59
2023/03/29 06:24:10;;;;;;;;;;;18.60;30.00;;;;;;1546891;77;1174;-60
2023/03/29 06:26:12;;;;;;;;;;;18.70;30.20;;;;;;1535506;77;665;-61
2023/03/29 06:28:14;;;;;;;;;;;18.70;30.10;;;;;;1531166;77;761;-60
2023/03/29 06:30:16;;;;;;;;;;;18.80;30.00;;;;;;1542909;77;1531;-61
2023/03/29 06:32:17;;;;;;;;;;;18.70;30.00;;;;;;1540604;77;787;-62
2023/03/29 06:34:20;;;;;;;;;;;18.80;30.00;;;;;;1537373;77;1109;-58
2023/03/29 06:36:22;;;;;;;;;;;18.70;30.00;;;;;;1545018;77;740;-58
2023/03/29 06:38:27;;;;;;;;;;;18.60;29.90;;;;;;1529944;77;1913;-59
2023/03/29 06:40:29;;;;;;;;;;;18.70;30.00;;;;;;1536249;77;1538;-59
2023/03/29 06:42:31;;;;;;;;;;;18.70;30.00;;;;;;1541379;77;1158;-58
2023/03/29 06:44:33;;;;;;;;;;;18.80;29.80;;;;;;1544397;77;734;-60
2023/03/29 06:46:36;;;;;;;;;;;18.70;30.00;;;;;;1536291;77;825;-59
2023/03/29 06:48:38;;;;;;;;;;;18.80;30.00;;;;;;1531068;77;750;-59
2023/03/29 06:50:40;;;;;;;;;;;18.80;29.90;;;;;;1541348;77;674;-58
2023/03/29 06:52:42;;;;;;;;;;;18.80;29.90;;;;;;1531418;77;1148;-59
2023/03/29 06:54:44;;;;;;;;;;;18.80;29.90;;;;;;1526698;77;678;-60
2023/03/29 06:56:46;;;;;;;;;;;18.80;29.90;;;;;;1535183;77;1328;-59
2023/03/29 06:58:48;;;;;;;;;;;18.70;29.90;;;;;;1545314;77;1931;-58
2023/03/29 07:00:50;;;;;;;;;;;18.70;29.80;;;;;;1530727;77;712;-58
2023/03/29 07:02:52;;;;;;;;;;;18.80;29.80;;;;;;1523554;77;1116;-59
2023/03/29 07:04:55;;;;;;;;;;;18.70;29.80;;;;;;1541719;77;733;-59
2023/03/29 07:07:01;;;;;;;;;;;18.80;29.80;;;;;;1536534;77;651;-59
2023/03/29 07:09:00;;;;;;;;;;;18.80;29.80;;;;;;1537138;77;1432;-59
2023/03/29 07:11:02;;;;;;;;;;;18.80;29.90;;;;;;1544605;77;1561;-58
2023/03/29 07:13:04;;;;;;;;;;;18.80;29.90;;;;;;1540269;77;1145;-59
2023/03/29 07:15:08;;;;;;;;;;;18.70;29.80;;;;;;1535904;77;715;-60
2023/03/29 07:17:10;;;;;;;;;;;18.80;29.90;;;;;;1533859;77;749;-61
2023/03/29 07:19:12;;;;;;;;;;;18.80;29.80;;;;;;1542287;77;1924;-60
2023/03/29 07:21:14;;;;;;;;;;;18.50;29.70;;;;;;1533052;77;751;-60
2023/03/29 07:23:16;;;;;;;;;;;18.80;29.90;;;;;;1533292;77;1197;-60
2023/03/29 07:25:20;;;;;;;;;;;18.70;29.90;;;;;;1539101;77;1470;-58
2023/03/29 07:27:22;;;;;;;;;;;18.80;29.90;;;;;;1541219;77;775;-60
2023/03/29 07:29:25;;;;;;;;;;;18.80;29.90;;;;;;1536987;77;768;-60
2023/03/29 07:31:33;;;;;;;;;;;18.80;29.90;;;;;;1527102;77;542;-60
2023/03/29 07:33:30;;;;;;;;;;;18.80;29.90;;;;;;1530540;77;1127;-58
2023/03/29 07:35:32;;;;;;;;;;;18.80;29.90;;;;;;1531918;77;603;-59
2023/03/29 07:37:36;;;;;;;;;;;18.70;29.90;;;;;;1533661;77;751;-58
2023/03/29 07:39:38;;;;;;;;;;;18.70;30.00;;;;;;1525891;77;1922;-60
2023/03/29 07:41:40;;;;;;;;;;;18.70;30.00;;;;;;1533447;77;760;-59
2023/03/29 07:43:41;;;;;;;;;;;18.70;30.00;;;;;;1547227;77;1170;-59
2023/03/29 07:45:43;;;;;;;;;;;18.70;30.00;;;;;;1535379;77;649;-58
2023/03/29 07:47:46;;;;;;;;;;;18.70;30.00;;;;;;1536561;77;737;-59
2023/03/29 07:49:48;;;;;;;;;;;18.80;30.00;;;;;;1537352;77;725;-59
2023/03/29 07:51:50;;;;;;;;;;;18.70;30.10;;;;;;1542499;77;711;-61
2023/03/29 07:53:52;;;;;;;;;;;18.70;30.20;;;;;;1537996;77;1500;-57
2023/03/29 07:55:54;;;;;;;;;;;18.70;30.20;;;;;;1534368;77;682;-59
2023/03/29 07:57:56;;;;;;;;;;;18.70;30.20;;;;;;1545541;77;752;-58
2023/03/29 07:59:57;;;;;;;;;;;18.60;30.10;;;;;;1546681;77;1942;-59
2023/03/29 08:02:00;;;;;;;;;;;18.70;30.20;;;;;;1530215;77;735;-60
2023/03/29 08:04:02;;;;;;;;;;;18.70;30.20;;;;;;1534289;77;1133;-58
2023/03/29 08:06:03;;;;;;;;;;;18.70;30.30;;;;;;1531644;77;681;-59
2023/03/29 08:08:06;;;;;;;;;;;18.70;30.20;;;;;;1539055;77;1576;-60
2023/03/29 08:10:08;;;;;;;;;;;18.80;30.20;;;;;;1544377;77;718;-59
2023/03/29 08:12:10;;;;;;;;;;;18.70;30.20;;;;;;1532906;77;720;-60
2023/03/29 08:14:12;;;;;;;;;;;18.70;30.20;;;;;;1526745;77;1120;-57
2023/03/29 08:16:13;;;;;;;;;;;18.70;30.20;;;;;;1545276;77;769;-59
2023/03/29 08:18:15;;;;;;;;;;;18.80;30.20;;;;;;1535378;77;728;-60
2023/03/29 08:20:18;;;;;;;;;;;18.80;30.20;;;;;;1531791;77;1934;-58
2023/03/29 08:22:20;;;;;;;;;;;18.80;30.20;;;;;;1542677;77;1564;-58
2023/03/29 08:24:22;;;;;;;;;;;18.80;30.20;;;;;;1539911;77;800;-60
2023/03/29 08:26:24;;;;;;;;;;;18.70;30.20;;;;;;1540450;77;795;-59
2023/03/29 08:28:26;;;;;;;;;;;18.80;30.20;;;;;;1531039;77;677;-58
2023/03/29 08:30:28;;;;;;;;;;;18.80;30.20;;;;;;1535659;77;726;-58
2023/03/29 08:32:30;;;;;;;;;;;18.80;30.20;;;;;;1541923;77;1165;-58
2023/03/29 08:34:34;;;;;;;;;;;18.70;30.20;;;;;;1545882;77;818;-62
2023/03/29 08:36:36;;;;;;;;;;;18.80;30.30;;;;;;1535481;77;1530;-59
2023/03/29 08:38:38;;;;;;;;;;;18.70;30.20;;;;;;1537390;77;689;-60
2023/03/29 08:40:40;;;;;;;;;;;18.70;30.20;;;;;;1537648;77;1941;-59
2023/03/29 08:42:58;;;;;;;;;;;18.80;30.20;;;;;;1529240;77;1141;-60
2023/03/29 08:45:05;;;;;;;;;;;18.80;30.20;;;;;;1542630;77;821;-60
2023/03/29 08:47:11;;;;;;;;;;;18.70;30.20;;;;;;1538288;77;768;-60
2023/03/29 08:49:13;;;;;;;;;;;18.70;30.20;;;;;;1540414;77;2037;-60
2023/03/29 08:51:32;;;;;;;;;;;18.80;30.30;;;;;;1546884;77;719;-60
2023/03/29 08:53:43;;;;;;;;;;;18.70;30.40;;;;;;1541197;77;1811;-59
2023/03/29 08:55:47;;;;;;;;;;;18.70;29.80;;;;;;1546541;77;669;-59
2023/03/29 08:57:50;;;;;;;;;;;18.70;30.40;;;;;;1545821;77;761;-59
2023/03/29 08:59:52;;;;;;;;;;;18.60;30.40;;;;;;1535292;77;1879;-60
2023/03/29 09:01:55;;;;;;;;;;;18.70;30.40;;;;;;1546920;77;686;-59
2023/03/29 09:04:04;;;;;;;;;;;18.70;30.40;;;;;;1530400;77;1489;-60
2023/03/29 09:06:07;;;;;;;;;;;18.70;30.60;;;;;;1543765;77;584;-59
2023/03/29 09:08:14;;;;;;;;;;;18.70;30.50;;;;;;1539180;77;668;-59
2023/03/29 09:10:17;;;;;;;;;;;18.70;30.40;;;;;;1524731;77;706;-59
2023/03/29 09:12:35;;;;;;;;;;;18.70;30.40;;;;;;1528600;77;689;-59
2023/03/29 09:14:39;;;;;;;;;;;18.80;30.40;;;;;;1526834;77;573;-58
2023/03/29 09:16:42;;;;;;;;;;;18.70;30.40;;;;;;1532638;77;668;-60
2023/03/29 09:19:03;;;;;;;;;;;18.70;30.50;;;;;;1531311;77;1493;-58
2023/03/29 09:21:06;;;;;;;;;;;18.60;30.40;;;;;;1533094;77;793;-60
2023/03/29 09:23:19;;;;;;;;;;;18.60;30.50;;;;;;1538263;77;1178;-58
2023/03/29 09:25:26;;;;;;;;;;;18.70;30.50;;;;;;1540809;77;1438;-59
2023/03/29 09:27:31;;;;;;;;;;;18.60;30.50;;;;;;1508451;78;710;-61
2023/03/29 09:29:51;;;;;;;;;;;18.60;30.60;;;;;;1537487;77;1834;-59
2023/03/29 09:31:53;;;;;;;;;;;18.60;30.60;;;;;;1534118;77;1331;-57
2023/03/29 09:33:58;;;;;;;;;;;18.60;30.60;;;;;;1546393;77;1169;-59
2023/03/29 09:36:13;;;;;;;;;;;18.60;30.60;;;;;;1539923;77;728;-61
2023/03/29 09:38:16;;;;;;;;;;;18.60;30.50;;;;;;1529875;77;678;-59
2023/03/29 09:40:34;;;;;;;;;;;18.70;30.60;;;;;;1542428;77;1914;-60
2023/03/29 09:42:36;;;;;;;;;;;18.70;30.60;;;;;;1537361;77;1167;-58
2023/03/29 09:44:40;;;;;;;;;;;18.70;30.60;;;;;;1546961;77;697;-59
2023/03/29 09:46:43;;;;;;;;;;;18.70;30.60;;;;;;1541418;77;1512;-58
2023/03/29 09:48:45;;;;;;;;;;;18.70;30.60;;;;;;1536825;77;658;-58
2023/03/29 09:50:50;;;;;;;;;;;18.70;30.70;;;;;;1542794;77;679;-59
2023/03/29 09:52:51;;;;;;;;;;;18.70;30.60;;;;;;1543657;77;1764;-58
2023/03/29 09:54:53;;;;;;;;;;;18.70;30.60;;;;;;1539523;77;674;-58
2023/03/29 09:56:55;;;;;;;;;;;18.70;30.60;;;;;;1545462;77;760;-57
2023/03/29 09:58:56;;;;;;;;;;;18.60;30.60;;;;;;1537874;77;697;-60
2023/03/29 10:00:59;;;;;;;;;;;18.60;30.60;;;;;;1534092;77;1947;-58
2023/03/29 10:03:01;;;;;;;;;;;18.60;30.60;;;;;;1529506;77;1143;-61
2023/03/29 10:05:04;;;;;;;;;;;18.60;30.70;;;;;;1541822;77;752;-60
2023/03/29 10:07:07;;;;;;;;;;;18.70;30.80;;;;;;1546170;77;839;-60
2023/03/29 10:09:16;;;;;;;;;;;18.60;30.70;;;;;;1543445;77;778;-60
2023/03/29 10:11:22;;;;;;;;;;;18.70;30.80;;;;;;1530024;77;1629;-60
2023/03/29 10:13:29;;;;;;;;;;;18.60;30.70;;;;;;1539192;77;1160;-58
2023/03/29 10:15:31;;;;;;;;;;;18.60;30.70;;;;;;1545302;77;1070;-61
2023/03/29 10:17:34;;;;;;;;;;;18.60;30.70;;;;;;1537695;77;710;-60
2023/03/29 10:19:36;;;;;;;;;;;18.70;30.70;;;;;;1526856;77;2233;-58
2023/03/29 10:21:39;;;;;;;;;;;18.70;30.70;;;;;;1539074;77;705;-59
2023/03/29 10:23:41;;;;;;;;;;;18.70;30.70;;;;;;1518666;77;1172;-59
2023/03/29 10:25:44;;;;;;;;;;;18.70;30.60;;;;;;1537176;77;718;-59
2023/03/29 10:27:46;;;;;;;;;;;18.80;30.70;;;;;;1538098;77;1457;-60
2023/03/29 10:29:48;;;;;;;;;;;18.80;30.50;;;;;;1543226;77;804;-61
2023/03/29 10:31:49;;;;;;;;;;;18.80;30.60;;;;;;1529565;77;678;-58
2023/03/29 10:33:53;;;;;;;;;;;18.80;30.60;;;;;;1535241;77;1194;-59
2023/03/29 10:35:56;;;;;;;;;;;18.80;30.60;;;;;;1541345;77;1801;-59
2023/03/29 10:37:58;;;;;;;;;;;18.80;30.60;;;;;;1507461;78;840;-61
2023/03/29 10:40:00;;;;;;;;;;;18.80;30.50;;;;;;1535522;77;1907;-62
2023/03/29 10:42:02;;;;;;;;;;;18.80;30.60;;;;;;1528022;77;1562;-60
2023/03/29 10:44:04;;;;;;;;;;;18.80;30.60;;;;;;1532431;77;1149;-58
2023/03/29 10:46:07;;;;;;;;;;;18.80;30.50;;;;;;1541017;77;741;-59
2023/03/29 10:48:13;;;;;;;;;;;18.80;30.60;;;;;;1529359;77;734;-59
2023/03/29 10:50:15;;;;;;;;;;;18.80;30.80;;;;;;1542914;77;785;-59
2023/03/29 10:52:17;;;;;;;;;;;18.80;30.60;;;;;;1542821;77;665;-59
2023/03/29 10:54:20;;;;;;;;;;;18.80;30.60;;;;;;1539706;77;1157;-58
2023/03/29 10:56:24;;;;;;;;;;;18.80;30.60;;;;;;1532845;77;1368;-60
2023/03/29 10:58:27;;;;;;;;;;;18.80;30.60;;;;;;1538898;77;712;-58
2023/03/29 11:00:37;;;;;;;;;;;18.80;30.60;;;;;;1539876;77;1991;-58
2023/03/29 11:02:57;;;;;;;;;;;18.80;30.50;;;;;;1534341;77;1154;-59
2023/03/29 11:05:19;;;;;;;;;;;18.80;30.60;;;;;;1542126;77;731;-58
2023/03/29 11:07:39;;;;;;;;;;;18.70;30.60;;;;;;1536130;77;681;-60
2023/03/29 11:09:48;;;;;;;;;;;18.70;30.70;;;;;;1527397;77;748;-59
2023/03/29 11:12:02;;;;;;;;;;;18.70;30.70;;;;;;1533511;77;709;-60
2023/03/29 11:14:17;;;;;;;;;;;18.80;30.70;;;;;;1539101;77;1108;-60
2023/03/29 11:16:36;;;;;;;;;;;18.80;30.80;;;;;;1545759;77;2150;-61
2023/03/29 11:18:48;;;;;;;;;;;18.60;30.60;;;;;;1537170;77;782;-58
2023/03/29 11:21:00;;;;;;;;;;;18.70;30.80;;;;;;1540119;77;1947;-60
2023/03/29 11:23:21;;;;;;;;;;;18.60;30.70;;;;;;1540524;77;1146;-58
2023/03/29 11:25:23;;;;;;;;;;;18.70;30.90;;;;;;1538619;77;1385;-59
2023/03/29 11:27:36;;;;;;;;;;;18.60;30.80;;;;;;1539894;77;763;-61
2023/03/29 11:29:40;;;;;;;;;;;18.70;31.00;;;;;;1547214;77;594;-59
2023/03/29 11:31:49;;;;;;;;;;;18.70;30.80;;;;;;1535675;77;1853;-60
2023/03/29 11:33:56;;;;;;;;;;;18.70;30.80;;;;;;1540130;77;1888;-61
2023/03/29 11:35:59;;;;;;;;;;;18.70;30.60;;;;;;1546660;77;953;-60
2023/03/29 11:38:15;;;;;;;;;;;18.70;30.90;;;;;;1541238;77;1573;-61
2023/03/29 11:40:18;;;;;;;;;;;18.70;30.90;;;;;;1541048;77;1924;-59
2023/03/29 11:42:21;;;;;;;;;;;18.70;30.80;;;;;;1536373;77;705;-60
2023/03/29 11:44:30;;;;;;;;;;;18.70;30.80;;;;;;1544969;77;706;-59
2023/03/29 11:46:42;;;;;;;;;;;18.70;30.80;;;;;;1538019;77;638;-59
2023/03/29 11:48:46;;;;;;;;;;;18.80;30.70;;;;;;1533827;77;678;-57
2023/03/29 11:50:49;;;;;;;;;;;18.70;30.70;;;;;;1543817;77;936;-59
2023/03/29 11:52:56;;;;;;;;;;;18.70;30.80;;;;;;1546319;77;1463;-58
2023/03/29 11:54:58;;;;;;;;;;;18.70;30.80;;;;;;1531628;77;781;-59
2023/03/29 11:57:14;;;;;;;;;;;18.70;30.80;;;;;;1544679;77;813;-59
2023/03/29 11:59:17;;;;;;;;;;;18.80;30.80;;;;;;1544193;77;890;-59
2023/03/29 12:01:21;;;;;;;;;;;18.70;30.70;;;;;;1536591;77;1939;-60
2023/03/29 12:03:27;;;;;;;;;;;18.70;30.80;;;;;;1543260;77;1785;-60
2023/03/29 12:05:31;;;;;;;;;;;18.70;30.80;;;;;;1534683;77;1993;-60
2023/03/29 12:07:37;;;;;;;;;;;18.70;30.70;;;;;;1537876;77;1517;-59
2023/03/29 12:09:39;;;;;;;;;;;18.70;30.70;;;;;;1544718;77;812;-61
2023/03/29 12:12:01;;;;;;;;;;;18.70;30.80;;;;;;1526349;77;595;-59
2023/03/29 12:14:05;;;;;;;;;;;18.70;30.70;;;;;;1529700;77;1085;-58
2023/03/29 12:16:11;;;;;;;;;;;18.70;30.90;;;;;;1520551;77;1690;-62